sensor_id;sensor_type;location;lat;lon;timestamp;temperature;humidity
2657;DHT22;1338;48.176;11.792;2022-08-19T00:01:44;17.50;1.00
2657;DHT22;1338;48.176;11.792;2022-08-19T00:04:21;17.40;1.00
2657;DHT22;1338;48.176;11.792;2022-08-19T00:06:51;17.40;1.00
2657;DHT22;1338;48.176;11.792;2022-08-19T00:09:21;17.40;99.90
2657;DHT22;1338;48.176;11.792;2022-08-19T00:11:51;17.40;1.00
2657;DHT22;1338;48.176;11.792;2022-08-19T00:14:19;17.40;99.90
2657;DHT22;1338;48.176;11.792;2022-08-19T00:16:50;17.30;1.00
2657;DHT22;1338;48.176;11.792;2022-08-19T00:19:22;17.30;1.00
2657;DHT22;1338;48.176;11.792;2022-08-19T00:21:51;17.30;1.00
2657;DHT22;1338;48.176;11.792;2022-08-19T00:24:19;17.30;99.90
2657;DHT22;1338;48.176;11.792;2022-08-19T00:26:47;17.20;1.00
2657;DHT22;1338;48.176;11.792;2022-08-19T00:29:19;17.20;1.00
2657;DHT22;1338;48.176;11.792;2022-08-19T00:31:50;17.20;1.00
2657;DHT22;1338;48.176;11.792;2022-08-19T00:34:21;17.10;1.00
2657;DHT22;1338;48.176;11.792;2022-08-19T00:36:49;17.10;1.00
2657;DHT22;1338;48.176;11.792;2022-08-19T00:39:18;17.10;1.00
2657;DHT22;1338;48.176;11.792;2022-08-19T00:41:47;17.20;1.00
2657;DHT22;1338;48.176;11.792;2022-08-19T00:44:18;17.20;1.00
2657;DHT22;1338;48.176;11.792;2022-08-19T00:46:56;17.20;1.00
2657;DHT22;1338;48.176;11.792;2022-08-19T00:49:30;17.20;1.00
2657;DHT22;1338;48.176;11.792;2022-08-19T00:52:02;17.20;1.00
2657;DHT22;1338;48.176;11.792;2022-08-19T00:54:30;17.20;1.00
2657;DHT22;1338;48.176;11.792;2022-08-19T00:57:02;17.20;1.00
2657;DHT22;1338;48.176;11.792;2022-08-19T00:59:35;17.30;1.00
2657;DHT22;1338;48.176;11.792;2022-08-19T01:02:28;17.30;99.90
2657;DHT22;1338;48.176;11.792;2022-08-19T01:04:56;17.40;99.90
2657;DHT22;1338;48.176;11.792;2022-08-19T01:07:25;17.30;99.90
2657;DHT22;1338;48.176;11.792;2022-08-19T01:09:53;17.30;1.00
2657;DHT22;1338;48.176;11.792;2022-08-19T01:12:22;17.30;99.90
2657;DHT22;1338;48.176;11.792;2022-08-19T01:14:51;17.30;1.00
2657;DHT22;1338;48.176;11.792;2022-08-19T01:17:20;17.30;1.00
2657;DHT22;1338;48.176;11.792;2022-08-19T01:19:50;17.20;1.00
2657;DHT22;1338;48.176;11.792;2022-08-19T01:22:27;17.20;1.00
2657;DHT22;1338;48.176;11.792;2022-08-19T01:24:59;17.30;1.00
2657;DHT22;1338;48.176;11.792;2022-08-19T01:27:38;17.30;99.90
2657;DHT22;1338;48.176;11.792;2022-08-19T01:30:11;17.20;1.00
2657;DHT22;1338;48.176;11.792;2022-08-19T01:32:39;17.20;1.00
2657;DHT22;1338;48.176;11.792;2022-08-19T01:35:08;17.10;1.00
2657;DHT22;1338;48.176;11.792;2022-08-19T01:37:45;17.10;1.00
2657;DHT22;1338;48.176;11.792;2022-08-19T01:40:14;17.10;1.00
2657;DHT22;1338;48.176;11.792;2022-08-19T01:42:43;17.10;1.00
2657;DHT22;1338;48.176;11.792;2022-08-19T01:45:11;17.20;1.00
2657;DHT22;1338;48.176;11.792;2022-08-19T01:47:39;17.10;1.00
2657;DHT22;1338;48.176;11.792;2022-08-19T01:50:10;17.20;1.00
2657;DHT22;1338;48.176;11.792;2022-08-19T01:52:39;17.30;1.00
2657;DHT22;1338;48.176;11.792;2022-08-19T01:55:13;17.20;1.00
2657;DHT22;1338;48.176;11.792;2022-08-19T01:57:44;17.30;99.90
2657;DHT22;1338;48.176;11.792;2022-08-19T02:00:16;17.30;1.00
2657;DHT22;1338;48.176;11.792;2022-08-19T02:02:44;17.40;99.90
2657;DHT22;1338;48.176;11.792;2022-08-19T02:05:13;17.40;99.90
2657;DHT22;1338;48.176;11.792;2022-08-19T02:07:44;17.40;99.90
2657;DHT22;1338;48.176;11.792;2022-08-19T02:10:16;17.40;99.90
2657;DHT22;1338;48.176;11.792;2022-08-19T02:12:45;17.30;99.90
2657;DHT22;1338;48.176;11.792;2022-08-19T02:15:15;17.40;99.90
2657;DHT22;1338;48.176;11.792;2022-08-19T02:17:46;17.40;1.00
2657;DHT22;1338;48.176;11.792;2022-08-19T02:20:15;17.40;99.90
2657;DHT22;1338;48.176;11.792;2022-08-19T02:22:44;17.40;99.90
2657;DHT22;1338;48.176;11.792;2022-08-19T02:25:15;17.40;99.90
2657;DHT22;1338;48.176;11.792;2022-08-19T02:27:43;17.40;99.90
2657;DHT22;1338;48.176;11.792;2022-08-19T02:30:14;17.40;99.90
2657;DHT22;1338;48.176;11.792;2022-08-19T02:32:43;17.40;99.90
2657;DHT22;1338;48.176;11.792;2022-08-19T02:35:12;17.40;99.90
2657;DHT22;1338;48.176;11.792;2022-08-19T02:37:40;17.40;99.90
2657;DHT22;1338;48.176;11.792;2022-08-19T02:40:27;17.40;99.90
2657;DHT22;1338;48.176;11.792;2022-08-19T02:42:56;17.40;99.90
2657;DHT22;1338;48.176;11.792;2022-08-19T02:45:24;17.40;99.90
2657;DHT22;1338;48.176;11.792;2022-08-19T02:47:52;17.40;99.90
2657;DHT22;1338;48.176;11.792;2022-08-19T02:50:20;17.30;99.90
2657;DHT22;1338;48.176;11.792;2022-08-19T02:52:48;17.30;99.90
2657;DHT22;1338;48.176;11.792;2022-08-19T02:55:17;17.30;99.90
2657;DHT22;1338;48.176;11.792;2022-08-19T02:57:47;17.30;99.90
2657;DHT22;1338;48.176;11.792;2022-08-19T03:00:16;17.30;99.90
2657;DHT22;1338;48.176;11.792;2022-08-19T03:02:44;17.30;99.90
2657;DHT22;1338;48.176;11.792;2022-08-19T03:05:13;17.40;99.90
2657;DHT22;1338;48.176;11.792;2022-08-19T03:07:41;17.30;99.90
2657;DHT22;1338;48.176;11.792;2022-08-19T03:10:10;17.30;99.90
2657;DHT22;1338;48.176;11.792;2022-08-19T03:12:38;17.30;99.90
2657;DHT22;1338;48.176;11.792;2022-08-19T03:15:09;17.30;99.90
2657;DHT22;1338;48.176;11.792;2022-08-19T03:17:37;17.30;99.90
2657;DHT22;1338;48.176;11.792;2022-08-19T03:20:06;17.30;99.90
2657;DHT22;1338;48.176;11.792;2022-08-19T03:22:35;17.30;99.90
2657;DHT22;1338;48.176;11.792;2022-08-19T03:25:04;17.30;99.90
2657;DHT22;1338;48.176;11.792;2022-08-19T03:27:32;17.30;99.90
2657;DHT22;1338;48.176;11.792;2022-08-19T03:30:01;17.30;99.90
2657;DHT22;1338;48.176;11.792;2022-08-19T03:32:30;17.30;99.90
2657;DHT22;1338;48.176;11.792;2022-08-19T03:34:59;17.30;99.90
2657;DHT22;1338;48.176;11.792;2022-08-19T03:37:27;17.30;99.90
2657;DHT22;1338;48.176;11.792;2022-08-19T03:39:55;17.30;99.90
2657;DHT22;1338;48.176;11.792;2022-08-19T03:42:24;17.30;99.90
2657;DHT22;1338;48.176;11.792;2022-08-19T03:45:13;17.30;99.90
2657;DHT22;1338;48.176;11.792;2022-08-19T03:47:43;17.30;99.90
2657;DHT22;1338;48.176;11.792;2022-08-19T03:50:12;17.30;99.90
2657;DHT22;1338;48.176;11.792;2022-08-19T03:52:40;17.30;99.90
2657;DHT22;1338;48.176;11.792;2022-08-19T03:55:14;17.30;99.90
2657;DHT22;1338;48.176;11.792;2022-08-19T03:57:42;17.20;99.90
2657;DHT22;1338;48.176;11.792;2022-08-19T04:00:12;17.30;99.90
2657;DHT22;1338;48.176;11.792;2022-08-19T04:02:42;17.30;99.90
2657;DHT22;1338;48.176;11.792;2022-08-19T04:05:27;17.20;99.90
2657;DHT22;1338;48.176;11.792;2022-08-19T04:07:56;17.20;99.90
2657;DHT22;1338;48.176;11.792;2022-08-19T04:10:26;17.20;99.90
2657;DHT22;1338;48.176;11.792;2022-08-19T04:12:54;17.30;99.90
2657;DHT22;1338;48.176;11.792;2022-08-19T04:15:23;17.30;99.90
2657;DHT22;1338;48.176;11.792;2022-08-19T04:17:52;17.30;99.90
2657;DHT22;1338;48.176;11.792;2022-08-19T04:20:21;17.30;99.90
2657;DHT22;1338;48.176;11.792;2022-08-19T04:22:49;17.20;99.90
2657;DHT22;1338;48.176;11.792;2022-08-19T04:25:18;17.20;99.90
2657;DHT22;1338;48.176;11.792;2022-08-19T04:27:46;17.20;99.90
2657;DHT22;1338;48.176;11.792;2022-08-19T04:30:15;17.20;99.90
2657;DHT22;1338;48.176;11.792;2022-08-19T04:32:44;17.20;99.90
2657;DHT22;1338;48.176;11.792;2022-08-19T04:35:14;17.20;99.90
2657;DHT22;1338;48.176;11.792;2022-08-19T04:37:46;17.30;99.90
2657;DHT22;1338;48.176;11.792;2022-08-19T04:40:15;17.20;99.90
2657;DHT22;1338;48.176;11.792;2022-08-19T04:43:00;17.20;99.90
2657;DHT22;1338;48.176;11.792;2022-08-19T04:45:28;17.20;99.90
2657;DHT22;1338;48.176;11.792;2022-08-19T04:48:09;17.20;99.90
2657;DHT22;1338;48.176;11.792;2022-08-19T04:50:56;17.30;99.90
2657;DHT22;1338;48.176;11.792;2022-08-19T04:53:25;17.40;99.90
2657;DHT22;1338;48.176;11.792;2022-08-19T04:55:55;17.30;99.90
2657;DHT22;1338;48.176;11.792;2022-08-19T04:58:25;17.30;99.90
2657;DHT22;1338;48.176;11.792;2022-08-19T05:00:54;17.30;99.90
2657;DHT22;1338;48.176;11.792;2022-08-19T05:03:24;17.30;99.90
2657;DHT22;1338;48.176;11.792;2022-08-19T05:06:04;17.30;99.90
2657;DHT22;1338;48.176;11.792;2022-08-19T05:08:38;17.30;99.90
2657;DHT22;1338;48.176;11.792;2022-08-19T05:11:21;17.40;95.70
2657;DHT22;1338;48.176;11.792;2022-08-19T05:13:52;17.40;35.80
2657;DHT22;1338;48.176;11.792;2022-08-19T05:16:22;17.40;77.10
2657;DHT22;1338;48.176;11.792;2022-08-19T05:18:50;17.40;99.90
2657;DHT22;1338;48.176;11.792;2022-08-19T05:21:39;17.40;99.90
2657;DHT22;1338;48.176;11.792;2022-08-19T05:24:22;17.40;99.90
2657;DHT22;1338;48.176;11.792;2022-08-19T05:26:52;17.40;99.90
2657;DHT22;1338;48.176;11.792;2022-08-19T05:29:25;17.40;99.90
2657;DHT22;1338;48.176;11.792;2022-08-19T05:32:04;17.40;99.90
2657;DHT22;1338;48.176;11.792;2022-08-19T05:34:35;17.40;99.90
2657;DHT22;1338;48.176;11.792;2022-08-19T05:37:06;17.40;99.90
2657;DHT22;1338;48.176;11.792;2022-08-19T05:39:36;17.40;59.50
2657;DHT22;1338;48.176;11.792;2022-08-19T05:42:06;17.40;99.90
2657;DHT22;1338;48.176;11.792;2022-08-19T05:44:37;17.40;83.70
2657;DHT22;1338;48.176;11.792;2022-08-19T05:47:07;17.40;63.90
2657;DHT22;1338;48.176;11.792;2022-08-19T05:49:36;17.40;60.00
2657;DHT22;1338;48.176;11.792;2022-08-19T05:52:09;17.40;94.00
2657;DHT22;1338;48.176;11.792;2022-08-19T05:54:39;17.50;99.90
2657;DHT22;1338;48.176;11.792;2022-08-19T05:57:09;17.50;54.40
2657;DHT22;1338;48.176;11.792;2022-08-19T05:59:39;17.50;99.90
2657;DHT22;1338;48.176;11.792;2022-08-19T06:02:07;17.50;99.90
2657;DHT22;1338;48.176;11.792;2022-08-19T06:04:35;17.50;99.90
2657;DHT22;1338;48.176;11.792;2022-08-19T06:07:05;17.50;99.90
2657;DHT22;1338;48.176;11.792;2022-08-19T06:09:39;17.50;99.90
2657;DHT22;1338;48.176;11.792;2022-08-19T06:12:24;17.50;99.90
2657;DHT22;1338;48.176;11.792;2022-08-19T06:15:03;17.40;99.90
2657;DHT22;1338;48.176;11.792;2022-08-19T06:17:32;17.40;99.90
2657;DHT22;1338;48.176;11.792;2022-08-19T06:20:02;17.40;99.90
2657;DHT22;1338;48.176;11.792;2022-08-19T06:22:37;17.60;99.90
2657;DHT22;1338;48.176;11.792;2022-08-19T06:25:06;17.50;99.90
2657;DHT22;1338;48.176;11.792;2022-08-19T06:27:36;17.50;99.90
2657;DHT22;1338;48.176;11.792;2022-08-19T06:30:24;17.40;99.90
2657;DHT22;1338;48.176;11.792;2022-08-19T06:32:52;17.40;99.90
2657;DHT22;1338;48.176;11.792;2022-08-19T06:35:21;17.40;1.00
2657;DHT22;1338;48.176;11.792;2022-08-19T06:37:50;17.30;1.00
2657;DHT22;1338;48.176;11.792;2022-08-19T06:40:19;17.30;1.00
2657;DHT22;1338;48.176;11.792;2022-08-19T06:42:47;17.30;1.00
2657;DHT22;1338;48.176;11.792;2022-08-19T06:45:21;17.40;1.00
2657;DHT22;1338;48.176;11.792;2022-08-19T06:47:50;17.40;1.00
2657;DHT22;1338;48.176;11.792;2022-08-19T06:50:22;17.40;1.00
2657;DHT22;1338;48.176;11.792;2022-08-19T06:52:52;17.40;1.00
2657;DHT22;1338;48.176;11.792;2022-08-19T06:55:21;17.30;1.00
2657;DHT22;1338;48.176;11.792;2022-08-19T06:57:50;17.30;1.00
2657;DHT22;1338;48.176;11.792;2022-08-19T07:00:20;17.40;1.00
2657;DHT22;1338;48.176;11.792;2022-08-19T07:02:48;17.40;1.00
2657;DHT22;1338;48.176;11.792;2022-08-19T07:05:25;17.50;1.00
2657;DHT22;1338;48.176;11.792;2022-08-19T07:07:55;17.60;1.00
2657;DHT22;1338;48.176;11.792;2022-08-19T07:10:30;17.50;1.00
2657;DHT22;1338;48.176;11.792;2022-08-19T07:12:59;17.60;1.00
2657;DHT22;1338;48.176;11.792;2022-08-19T07:15:27;17.60;1.00
2657;DHT22;1338;48.176;11.792;2022-08-19T07:17:55;17.60;1.00
2657;DHT22;1338;48.176;11.792;2022-08-19T07:20:24;17.70;1.00
2657;DHT22;1338;48.176;11.792;2022-08-19T07:22:56;17.70;1.00
2657;DHT22;1338;48.176;11.792;2022-08-19T07:25:25;17.60;99.90
2657;DHT22;1338;48.176;11.792;2022-08-19T07:27:59;17.90;99.90
2657;DHT22;1338;48.176;11.792;2022-08-19T07:30:27;18.00;99.90
2657;DHT22;1338;48.176;11.792;2022-08-19T07:32:57;18.10;99.90
2657;DHT22;1338;48.176;11.792;2022-08-19T07:35:29;18.30;99.90
2657;DHT22;1338;48.176;11.792;2022-08-19T07:38:00;18.40;1.00
2657;DHT22;1338;48.176;11.792;2022-08-19T07:40:30;18.60;1.00
2657;DHT22;1338;48.176;11.792;2022-08-19T07:42:59;18.50;1.00
2657;DHT22;1338;48.176;11.792;2022-08-19T07:45:27;18.50;1.00
2657;DHT22;1338;48.176;11.792;2022-08-19T07:47:56;18.50;1.00
2657;DHT22;1338;48.176;11.792;2022-08-19T07:50:24;18.40;1.00
2657;DHT22;1338;48.176;11.792;2022-08-19T07:52:52;18.70;1.00
2657;DHT22;1338;48.176;11.792;2022-08-19T07:55:24;18.50;1.00
2657;DHT22;1338;48.176;11.792;2022-08-19T07:58:10;18.60;1.00
2657;DHT22;1338;48.176;11.792;2022-08-19T08:00:38;18.40;33.50
2657;DHT22;1338;48.176;11.792;2022-08-19T08:03:07;18.30;99.90
2657;DHT22;1338;48.176;11.792;2022-08-19T08:05:36;18.40;1.00
2657;DHT22;1338;48.176;11.792;2022-08-19T08:08:22;18.40;1.00
2657;DHT22;1338;48.176;11.792;2022-08-19T08:11:16;18.40;1.00
2657;DHT22;1338;48.176;11.792;2022-08-19T08:13:47;18.30;1.00
2657;DHT22;1338;48.176;11.792;2022-08-19T08:16:31;18.40;1.00
2657;DHT22;1338;48.176;11.792;2022-08-19T08:19:00;18.40;1.00
2657;DHT22;1338;48.176;11.792;2022-08-19T08:21:38;18.10;99.90
2657;DHT22;1338;48.176;11.792;2022-08-19T08:24:11;18.00;99.90
2657;DHT22;1338;48.176;11.792;2022-08-19T08:26:41;18.20;99.90
2657;DHT22;1338;48.176;11.792;2022-08-19T08:29:13;18.00;99.90
2657;DHT22;1338;48.176;11.792;2022-08-19T08:31:43;17.90;99.90
2657;DHT22;1338;48.176;11.792;2022-08-19T08:34:14;17.90;99.90
2657;DHT22;1338;48.176;11.792;2022-08-19T08:36:44;17.90;1.00
2657;DHT22;1338;48.176;11.792;2022-08-19T08:39:14;17.80;99.90
2657;DHT22;1338;48.176;11.792;2022-08-19T08:41:52;17.90;99.90
2657;DHT22;1338;48.176;11.792;2022-08-19T08:44:23;17.90;1.00
2657;DHT22;1338;48.176;11.792;2022-08-19T08:46:58;17.80;1.00
2657;DHT22;1338;48.176;11.792;2022-08-19T08:49:33;17.80;1.00
2657;DHT22;1338;48.176;11.792;2022-08-19T08:52:07;17.80;1.00
2657;DHT22;1338;48.176;11.792;2022-08-19T08:54:40;17.70;1.00
2657;DHT22;1338;48.176;11.792;2022-08-19T08:57:26;17.70;1.00
2657;DHT22;1338;48.176;11.792;2022-08-19T09:00:11;17.60;99.90
2657;DHT22;1338;48.176;11.792;2022-08-19T09:02:43;17.40;99.90
2657;DHT22;1338;48.176;11.792;2022-08-19T09:05:18;17.50;99.90
2657;DHT22;1338;48.176;11.792;2022-08-19T09:07:57;17.50;99.90
2657;DHT22;1338;48.176;11.792;2022-08-19T09:10:33;17.40;99.90
2657;DHT22;1338;48.176;11.792;2022-08-19T09:13:18;17.60;99.90
2657;DHT22;1338;48.176;11.792;2022-08-19T09:15:54;17.60;99.90
2657;DHT22;1338;48.176;11.792;2022-08-19T09:18:23;17.60;99.90
2657;DHT22;1338;48.176;11.792;2022-08-19T09:20:55;17.70;99.90
2657;DHT22;1338;48.176;11.792;2022-08-19T09:23:24;17.80;99.90
2657;DHT22;1338;48.176;11.792;2022-08-19T09:25:53;17.80;99.90
2657;DHT22;1338;48.176;11.792;2022-08-19T09:28:22;17.90;99.90
2657;DHT22;1338;48.176;11.792;2022-08-19T09:30:53;18.00;99.90
2657;DHT22;1338;48.176;11.792;2022-08-19T09:33:21;18.10;54.60
2657;DHT22;1338;48.176;11.792;2022-08-19T09:35:49;18.00;74.10
2657;DHT22;1338;48.176;11.792;2022-08-19T09:38:19;18.10;99.90
2657;DHT22;1338;48.176;11.792;2022-08-19T09:40:48;18.10;99.90
2657;DHT22;1338;48.176;11.792;2022-08-19T09:43:17;17.90;49.40
2657;DHT22;1338;48.176;11.792;2022-08-19T09:46:01;18.00;99.90
2657;DHT22;1338;48.176;11.792;2022-08-19T09:48:29;18.10;90.70
2657;DHT22;1338;48.176;11.792;2022-08-19T09:51:03;18.00;1.00
2657;DHT22;1338;48.176;11.792;2022-08-19T09:53:32;18.10;1.00
2657;DHT22;1338;48.176;11.792;2022-08-19T09:56:04;18.40;1.00
2657;DHT22;1338;48.176;11.792;2022-08-19T09:58:34;18.50;1.00
2657;DHT22;1338;48.176;11.792;2022-08-19T10:01:06;18.50;99.90
2657;DHT22;1338;48.176;11.792;2022-08-19T10:03:36;18.50;1.00
2657;DHT22;1338;48.176;11.792;2022-08-19T10:06:05;18.50;1.00
2657;DHT22;1338;48.176;11.792;2022-08-19T10:08:43;18.40;1.00
2657;DHT22;1338;48.176;11.792;2022-08-19T10:11:16;18.50;99.90
2657;DHT22;1338;48.176;11.792;2022-08-19T10:14:02;18.70;1.00
2657;DHT22;1338;48.176;11.792;2022-08-19T10:16:35;18.60;99.90
2657;DHT22;1338;48.176;11.792;2022-08-19T10:19:05;18.60;78.90
2657;DHT22;1338;48.176;11.792;2022-08-19T10:21:33;18.80;99.90
2657;DHT22;1338;48.176;11.792;2022-08-19T10:24:04;18.90;99.90
2657;DHT22;1338;48.176;11.792;2022-08-19T10:26:37;18.90;99.90
2657;DHT22;1338;48.176;11.792;2022-08-19T10:29:08;18.60;1.00
2657;DHT22;1338;48.176;11.792;2022-08-19T10:31:39;18.80;99.90
2657;DHT22;1338;48.176;11.792;2022-08-19T10:34:29;18.90;99.90
2657;DHT22;1338;48.176;11.792;2022-08-19T10:36:58;19.00;3.10
2657;DHT22;1338;48.176;11.792;2022-08-19T10:39:28;19.10;99.90
2657;DHT22;1338;48.176;11.792;2022-08-19T10:42:07;19.40;1.00
2657;DHT22;1338;48.176;11.792;2022-08-19T10:44:37;19.60;1.00
2657;DHT22;1338;48.176;11.792;2022-08-19T10:47:07;19.60;1.00
2657;DHT22;1338;48.176;11.792;2022-08-19T10:49:52;19.50;1.00
2657;DHT22;1338;48.176;11.792;2022-08-19T10:52:39;19.60;1.00
2657;DHT22;1338;48.176;11.792;2022-08-19T10:55:17;19.60;99.90
2657;DHT22;1338;48.176;11.792;2022-08-19T10:58:03;19.70;99.90
2657;DHT22;1338;48.176;11.792;2022-08-19T11:00:32;19.90;99.90
2657;DHT22;1338;48.176;11.792;2022-08-19T11:03:02;19.90;99.90
2657;DHT22;1338;48.176;11.792;2022-08-19T11:05:30;19.90;99.90
2657;DHT22;1338;48.176;11.792;2022-08-19T11:08:06;20.30;99.90
2657;DHT22;1338;48.176;11.792;2022-08-19T11:10:50;20.10;99.90
2657;DHT22;1338;48.176;11.792;2022-08-19T11:13:20;20.10;99.90
2657;DHT22;1338;48.176;11.792;2022-08-19T11:15:56;20.40;99.90
2657;DHT22;1338;48.176;11.792;2022-08-19T11:18:31;20.70;99.90
2657;DHT22;1338;48.176;11.792;2022-08-19T11:21:09;20.80;99.90
2657;DHT22;1338;48.176;11.792;2022-08-19T11:23:37;20.80;99.90
2657;DHT22;1338;48.176;11.792;2022-08-19T11:26:06;20.70;99.90
2657;DHT22;1338;48.176;11.792;2022-08-19T11:28:34;20.50;99.90
2657;DHT22;1338;48.176;11.792;2022-08-19T11:31:02;20.60;99.90
2657;DHT22;1338;48.176;11.792;2022-08-19T11:33:32;21.20;99.90
2657;DHT22;1338;48.176;11.792;2022-08-19T11:36:00;21.30;1.00
2657;DHT22;1338;48.176;11.792;2022-08-19T11:38:29;21.30;1.00
2657;DHT22;1338;48.176;11.792;2022-08-19T11:41:00;21.10;1.00
2657;DHT22;1338;48.176;11.792;2022-08-19T11:43:29;21.00;1.00
2657;DHT22;1338;48.176;11.792;2022-08-19T11:46:05;21.10;1.00
2657;DHT22;1338;48.176;11.792;2022-08-19T11:48:36;21.10;1.00
2657;DHT22;1338;48.176;11.792;2022-08-19T11:51:06;21.50;1.00
2657;DHT22;1338;48.176;11.792;2022-08-19T11:53:37;21.90;1.00
2657;DHT22;1338;48.176;11.792;2022-08-19T11:56:07;21.40;1.00
2657;DHT22;1338;48.176;11.792;2022-08-19T11:58:36;21.10;1.00
2657;DHT22;1338;48.176;11.792;2022-08-19T12:01:05;21.40;1.00
2657;DHT22;1338;48.176;11.792;2022-08-19T12:03:34;21.70;1.00
2657;DHT22;1338;48.176;11.792;2022-08-19T12:06:05;21.60;1.00
2657;DHT22;1338;48.176;11.792;2022-08-19T12:08:34;21.30;1.00
2657;DHT22;1338;48.176;11.792;2022-08-19T12:11:02;21.20;1.00
2657;DHT22;1338;48.176;11.792;2022-08-19T12:13:30;21.10;1.00
2657;DHT22;1338;48.176;11.792;2022-08-19T12:15:58;21.20;1.00
2657;DHT22;1338;48.176;11.792;2022-08-19T12:18:27;21.10;1.00
2657;DHT22;1338;48.176;11.792;2022-08-19T12:20:55;20.60;1.00
2657;DHT22;1338;48.176;11.792;2022-08-19T12:23:24;21.00;1.00
2657;DHT22;1338;48.176;11.792;2022-08-19T12:25:53;21.00;1.00
2657;DHT22;1338;48.176;11.792;2022-08-19T12:28:25;20.90;1.10
2657;DHT22;1338;48.176;11.792;2022-08-19T12:30:53;20.60;97.40
2657;DHT22;1338;48.176;11.792;2022-08-19T12:33:21;20.40;99.90
2657;DHT22;1338;48.176;11.792;2022-08-19T12:35:52;20.30;99.90
2657;DHT22;1338;48.176;11.792;2022-08-19T12:38:20;20.40;99.90
2657;DHT22;1338;48.176;11.792;2022-08-19T12:40:52;20.40;99.90
2657;DHT22;1338;48.176;11.792;2022-08-19T12:43:26;20.30;99.90
2657;DHT22;1338;48.176;11.792;2022-08-19T12:45:56;20.20;99.90
2657;DHT22;1338;48.176;11.792;2022-08-19T12:48:24;20.30;99.90
2657;DHT22;1338;48.176;11.792;2022-08-19T12:51:00;20.40;99.90
2657;DHT22;1338;48.176;11.792;2022-08-19T12:53:33;20.40;99.90
2657;DHT22;1338;48.176;11.792;2022-08-19T12:56:07;20.40;99.90
2657;DHT22;1338;48.176;11.792;2022-08-19T12:58:39;20.60;99.90
2657;DHT22;1338;48.176;11.792;2022-08-19T13:01:17;21.00;1.70
2657;DHT22;1338;48.176;11.792;2022-08-19T13:03:49;21.40;1.00
2657;DHT22;1338;48.176;11.792;2022-08-19T13:06:19;21.10;1.00
2657;DHT22;1338;48.176;11.792;2022-08-19T13:08:47;21.00;1.00
2657;DHT22;1338;48.176;11.792;2022-08-19T13:11:18;21.00;1.00
2657;DHT22;1338;48.176;11.792;2022-08-19T13:13:48;20.90;1.00
2657;DHT22;1338;48.176;11.792;2022-08-19T13:16:18;21.00;1.00
2657;DHT22;1338;48.176;11.792;2022-08-19T13:18:49;21.30;1.00
2657;DHT22;1338;48.176;11.792;2022-08-19T13:21:20;21.40;1.00
2657;DHT22;1338;48.176;11.792;2022-08-19T13:23:50;21.60;1.00
2657;DHT22;1338;48.176;11.792;2022-08-19T13:26:21;22.20;1.00
2657;DHT22;1338;48.176;11.792;2022-08-19T13:28:49;22.60;1.00
2657;DHT22;1338;48.176;11.792;2022-08-19T13:31:40;22.60;1.00
2657;DHT22;1338;48.176;11.792;2022-08-19T13:34:28;22.40;1.00
2657;DHT22;1338;48.176;11.792;2022-08-19T13:36:57;21.70;1.00
2657;DHT22;1338;48.176;11.792;2022-08-19T13:39:25;22.50;1.00
2657;DHT22;1338;48.176;11.792;2022-08-19T13:41:55;22.40;1.00
2657;DHT22;1338;48.176;11.792;2022-08-19T13:44:24;22.10;1.00
2657;DHT22;1338;48.176;11.792;2022-08-19T13:46:53;21.90;1.00
2657;DHT22;1338;48.176;11.792;2022-08-19T13:49:21;22.90;1.00
2657;DHT22;1338;48.176;11.792;2022-08-19T13:51:50;23.00;1.00
2657;DHT22;1338;48.176;11.792;2022-08-19T13:54:18;22.50;1.00
2657;DHT22;1338;48.176;11.792;2022-08-19T13:56:46;22.10;1.00
2657;DHT22;1338;48.176;11.792;2022-08-19T13:59:15;22.70;1.00
2657;DHT22;1338;48.176;11.792;2022-08-19T14:01:44;22.40;1.00
2657;DHT22;1338;48.176;11.792;2022-08-19T14:04:12;22.00;1.00
2657;DHT22;1338;48.176;11.792;2022-08-19T14:06:40;21.90;1.00
2657;DHT22;1338;48.176;11.792;2022-08-19T14:09:08;21.60;1.00
2657;DHT22;1338;48.176;11.792;2022-08-19T14:11:37;21.50;1.00
2657;DHT22;1338;48.176;11.792;2022-08-19T14:14:05;21.50;1.00
2657;DHT22;1338;48.176;11.792;2022-08-19T14:16:34;21.80;1.00
2657;DHT22;1338;48.176;11.792;2022-08-19T14:19:02;21.10;1.00
2657;DHT22;1338;48.176;11.792;2022-08-19T14:21:31;21.00;1.00
2657;DHT22;1338;48.176;11.792;2022-08-19T14:24:05;21.20;1.00
2657;DHT22;1338;48.176;11.792;2022-08-19T14:26:34;21.40;1.00
2657;DHT22;1338;48.176;11.792;2022-08-19T14:29:02;21.10;1.00
2657;DHT22;1338;48.176;11.792;2022-08-19T14:31:30;21.20;1.00
2657;DHT22;1338;48.176;11.792;2022-08-19T14:34:00;20.90;1.00
2657;DHT22;1338;48.176;11.792;2022-08-19T14:36:28;21.00;1.00
2657;DHT22;1338;48.176;11.792;2022-08-19T14:38:57;21.00;1.00
2657;DHT22;1338;48.176;11.792;2022-08-19T14:41:27;20.90;1.00
2657;DHT22;1338;48.176;11.792;2022-08-19T14:43:57;20.70;1.00
2657;DHT22;1338;48.176;11.792;2022-08-19T14:46:27;20.80;1.00
2657;DHT22;1338;48.176;11.792;2022-08-19T14:48:56;20.90;1.00
2657;DHT22;1338;48.176;11.792;2022-08-19T14:51:27;21.00;1.00
2657;DHT22;1338;48.176;11.792;2022-08-19T14:53:55;21.20;1.00
2657;DHT22;1338;48.176;11.792;2022-08-19T14:56:25;21.60;1.00
2657;DHT22;1338;48.176;11.792;2022-08-19T14:58:54;21.90;1.00
2657;DHT22;1338;48.176;11.792;2022-08-19T15:01:26;22.10;1.00
2657;DHT22;1338;48.176;11.792;2022-08-19T15:03:54;21.70;1.00
2657;DHT22;1338;48.176;11.792;2022-08-19T15:06:23;21.30;1.00
2657;DHT22;1338;48.176;11.792;2022-08-19T15:08:53;21.10;1.00
2657;DHT22;1338;48.176;11.792;2022-08-19T15:11:28;21.40;1.00
2657;DHT22;1338;48.176;11.792;2022-08-19T15:13:56;22.20;1.00
2657;DHT22;1338;48.176;11.792;2022-08-19T15:16:25;21.20;1.00
2657;DHT22;1338;48.176;11.792;2022-08-19T15:18:56;22.00;1.00
2657;DHT22;1338;48.176;11.792;2022-08-19T15:21:25;22.60;1.00
2657;DHT22;1338;48.176;11.792;2022-08-19T15:23:56;22.70;1.00
2657;DHT22;1338;48.176;11.792;2022-08-19T15:26:24;22.30;1.00
2657;DHT22;1338;48.176;11.792;2022-08-19T15:28:54;21.80;1.00
2657;DHT22;1338;48.176;11.792;2022-08-19T15:31:23;22.80;1.00
2657;DHT22;1338;48.176;11.792;2022-08-19T15:33:55;23.00;1.00
2657;DHT22;1338;48.176;11.792;2022-08-19T15:36:25;22.70;1.00
2657;DHT22;1338;48.176;11.792;2022-08-19T15:38:55;21.60;1.00
2657;DHT22;1338;48.176;11.792;2022-08-19T15:41:26;21.40;1.00
2657;DHT22;1338;48.176;11.792;2022-08-19T15:43:59;21.00;1.00
2657;DHT22;1338;48.176;11.792;2022-08-19T15:46:32;22.10;1.00
2657;DHT22;1338;48.176;11.792;2022-08-19T15:49:01;22.50;1.00
2657;DHT22;1338;48.176;11.792;2022-08-19T15:51:31;22.50;1.00
2657;DHT22;1338;48.176;11.792;2022-08-19T15:54:04;22.40;1.00
2657;DHT22;1338;48.176;11.792;2022-08-19T15:56:33;22.00;1.00
2657;DHT22;1338;48.176;11.792;2022-08-19T15:59:27;21.30;1.00
2657;DHT22;1338;48.176;11.792;2022-08-19T16:02:14;20.90;1.00
2657;DHT22;1338;48.176;11.792;2022-08-19T16:04:58;20.70;1.00
2657;DHT22;1338;48.176;11.792;2022-08-19T16:07:43;20.40;1.00
2657;DHT22;1338;48.176;11.792;2022-08-19T16:10:14;20.60;1.00
2657;DHT22;1338;48.176;11.792;2022-08-19T16:12:53;20.10;1.00
2657;DHT22;1338;48.176;11.792;2022-08-19T16:15:22;20.00;1.00
2657;DHT22;1338;48.176;11.792;2022-08-19T16:17:50;19.80;17.80
2657;DHT22;1338;48.176;11.792;2022-08-19T16:20:24;19.90;10.30
2657;DHT22;1338;48.176;11.792;2022-08-19T16:22:53;19.80;1.00